sensor_id;sensor_type;location;lat;lon;timestamp;temperature;humidity
65770;DHT22;52512;47.650;8.578;2023-04-24T00:00:55;12.20;99.90
65770;DHT22;52512;47.650;8.578;2023-04-24T00:03:26;12.10;99.90
65770;DHT22;52512;47.650;8.578;2023-04-24T00:05:53;12.10;99.90
65770;DHT22;52512;47.650;8.578;2023-04-24T00:08:19;12.10;99.90
65770;DHT22;52512;47.650;8.578;2023-04-24T00:10:45;12.10;99.90
65770;DHT22;52512;47.650;8.578;2023-04-24T00:13:10;12.00;99.90
65770;DHT22;52512;47.650;8.578;2023-04-24T00:15:36;12.00;99.90
65770;DHT22;52512;47.650;8.578;2023-04-24T00:18:02;12.00;99.90
65770;DHT22;52512;47.650;8.578;2023-04-24T00:20:28;12.00;99.90
65770;DHT22;52512;47.650;8.578;2023-04-24T00:22:55;12.00;99.90
65770;DHT22;52512;47.650;8.578;2023-04-24T00:25:20;12.00;99.90
65770;DHT22;52512;47.650;8.578;2023-04-24T00:27:46;12.00;99.90
65770;DHT22;52512;47.650;8.578;2023-04-24T00:30:12;12.00;99.90
65770;DHT22;52512;47.650;8.578;2023-04-24T00:32:37;12.00;99.90
65770;DHT22;52512;47.650;8.578;2023-04-24T00:35:04;11.90;99.90
65770;DHT22;52512;47.650;8.578;2023-04-24T00:37:31;11.90;99.90
65770;DHT22;52512;47.650;8.578;2023-04-24T00:39:56;12.00;99.90
65770;DHT22;52512;47.650;8.578;2023-04-24T00:42:23;11.90;99.90
65770;DHT22;52512;47.650;8.578;2023-04-24T00:44:48;11.90;99.90
65770;DHT22;52512;47.650;8.578;2023-04-24T00:47:14;11.90;99.90
65770;DHT22;52512;47.650;8.578;2023-04-24T00:49:40;11.90;99.90
65770;DHT22;52512;47.650;8.578;2023-04-24T00:52:06;11.80;99.90
65770;DHT22;52512;47.650;8.578;2023-04-24T00:54:34;11.80;99.90
65770;DHT22;52512;47.650;8.578;2023-04-24T00:57:01;11.70;99.90
65770;DHT22;52512;47.650;8.578;2023-04-24T00:59:27;11.70;99.90
65770;DHT22;52512;47.650;8.578;2023-04-24T01:01:53;11.60;99.90
65770;DHT22;52512;47.650;8.578;2023-04-24T01:04:19;11.50;99.90
65770;DHT22;52512;47.650;8.578;2023-04-24T01:06:45;11.50;99.90
65770;DHT22;52512;47.650;8.578;2023-04-24T01:09:11;11.50;99.90
65770;DHT22;52512;47.650;8.578;2023-04-24T01:11:37;11.50;99.90
65770;DHT22;52512;47.650;8.578;2023-04-24T01:14:03;11.40;99.90
65770;DHT22;52512;47.650;8.578;2023-04-24T01:16:29;11.40;99.90
65770;DHT22;52512;47.650;8.578;2023-04-24T01:18:55;11.40;99.90
65770;DHT22;52512;47.650;8.578;2023-04-24T01:21:21;11.40;99.90
65770;DHT22;52512;47.650;8.578;2023-04-24T01:23:47;11.30;99.90
65770;DHT22;52512;47.650;8.578;2023-04-24T01:26:16;11.30;99.90
65770;DHT22;52512;47.650;8.578;2023-04-24T01:28:42;11.30;99.90
65770;DHT22;52512;47.650;8.578;2023-04-24T01:31:08;11.30;99.90
65770;DHT22;52512;47.650;8.578;2023-04-24T01:33:34;11.30;99.90
65770;DHT22;52512;47.650;8.578;2023-04-24T01:36:00;11.30;99.90
65770;DHT22;52512;47.650;8.578;2023-04-24T01:38:26;11.20;99.90
65770;DHT22;52512;47.650;8.578;2023-04-24T01:40:52;11.20;99.90
65770;DHT22;52512;47.650;8.578;2023-04-24T01:43:18;11.20;99.90
65770;DHT22;52512;47.650;8.578;2023-04-24T01:45:44;11.20;99.90
65770;DHT22;52512;47.650;8.578;2023-04-24T01:48:12;11.20;99.90
65770;DHT22;52512;47.650;8.578;2023-04-24T01:50:37;11.20;99.90
65770;DHT22;52512;47.650;8.578;2023-04-24T01:53:03;11.10;99.90
65770;DHT22;52512;47.650;8.578;2023-04-24T01:55:29;11.10;99.90
65770;DHT22;52512;47.650;8.578;2023-04-24T01:57:55;11.10;99.90
65770;DHT22;52512;47.650;8.578;2023-04-24T02:00:22;11.10;99.90
65770;DHT22;52512;47.650;8.578;2023-04-24T02:02:49;11.00;99.90
65770;DHT22;52512;47.650;8.578;2023-04-24T02:05:15;11.10;99.90
65770;DHT22;52512;47.650;8.578;2023-04-24T02:07:40;11.00;99.90
65770;DHT22;52512;47.650;8.578;2023-04-24T02:10:06;11.00;99.90
65770;DHT22;52512;47.650;8.578;2023-04-24T02:12:32;11.00;99.90
65770;DHT22;52512;47.650;8.578;2023-04-24T02:14:58;11.00;99.90
65770;DHT22;52512;47.650;8.578;2023-04-24T02:17:24;11.00;99.90
65770;DHT22;52512;47.650;8.578;2023-04-24T02:19:50;10.90;99.90
65770;DHT22;52512;47.650;8.578;2023-04-24T02:22:15;10.90;99.90
65770;DHT22;52512;47.650;8.578;2023-04-24T02:24:41;10.90;99.90
65770;DHT22;52512;47.650;8.578;2023-04-24T02:27:07;10.90;99.90
65770;DHT22;52512;47.650;8.578;2023-04-24T02:29:32;10.90;99.90
65770;DHT22;52512;47.650;8.578;2023-04-24T02:31:58;10.80;99.90
65770;DHT22;52512;47.650;8.578;2023-04-24T02:34:24;10.80;99.90
65770;DHT22;52512;47.650;8.578;2023-04-24T02:36:50;10.80;99.90
65770;DHT22;52512;47.650;8.578;2023-04-24T02:39:16;10.70;99.90
65770;DHT22;52512;47.650;8.578;2023-04-24T02:41:42;10.70;99.90
65770;DHT22;52512;47.650;8.578;2023-04-24T02:44:08;10.70;99.90
65770;DHT22;52512;47.650;8.578;2023-04-24T02:46:34;10.70;99.90
65770;DHT22;52512;47.650;8.578;2023-04-24T02:48:59;10.70;99.90
65770;DHT22;52512;47.650;8.578;2023-04-24T02:51:25;10.60;99.90
65770;DHT22;52512;47.650;8.578;2023-04-24T02:53:52;10.60;99.90
65770;DHT22;52512;47.650;8.578;2023-04-24T02:56:17;10.60;99.90
65770;DHT22;52512;47.650;8.578;2023-04-24T02:58:43;10.60;99.90
65770;DHT22;52512;47.650;8.578;2023-04-24T03:01:09;10.50;99.90
65770;DHT22;52512;47.650;8.578;2023-04-24T03:03:38;10.50;99.90
65770;DHT22;52512;47.650;8.578;2023-04-24T03:06:04;10.50;99.90
65770;DHT22;52512;47.650;8.578;2023-04-24T03:08:32;10.40;99.90
65770;DHT22;52512;47.650;8.578;2023-04-24T03:10:59;10.40;99.90
65770;DHT22;52512;47.650;8.578;2023-04-24T03:13:25;10.40;99.90
65770;DHT22;52512;47.650;8.578;2023-04-24T03:15:50;10.30;99.90
65770;DHT22;52512;47.650;8.578;2023-04-24T03:18:16;10.20;99.90
65770;DHT22;52512;47.650;8.578;2023-04-24T03:20:42;10.20;99.90
65770;DHT22;52512;47.650;8.578;2023-04-24T03:23:07;10.20;99.90
65770;DHT22;52512;47.650;8.578;2023-04-24T03:25:33;10.10;99.90
65770;DHT22;52512;47.650;8.578;2023-04-24T03:27:59;10.10;99.90
65770;DHT22;52512;47.650;8.578;2023-04-24T03:30:24;10.10;99.90
65770;DHT22;52512;47.650;8.578;2023-04-24T03:32:50;10.10;99.90
65770;DHT22;52512;47.650;8.578;2023-04-24T03:35:16;10.00;99.90
65770;DHT22;52512;47.650;8.578;2023-04-24T03:37:41;10.10;99.90
65770;DHT22;52512;47.650;8.578;2023-04-24T03:40:07;10.00;99.90
65770;DHT22;52512;47.650;8.578;2023-04-24T03:42:33;10.00;99.90
65770;DHT22;52512;47.650;8.578;2023-04-24T03:45:00;10.00;99.90
65770;DHT22;52512;47.650;8.578;2023-04-24T03:47:26;10.00;99.90
65770;DHT22;52512;47.650;8.578;2023-04-24T03:49:51;10.00;99.90
65770;DHT22;52512;47.650;8.578;2023-04-24T03:52:17;10.00;99.90
65770;DHT22;52512;47.650;8.578;2023-04-24T03:54:43;10.00;99.90
65770;DHT22;52512;47.650;8.578;2023-04-24T03:57:08;9.90;99.90
65770;DHT22;52512;47.650;8.578;2023-04-24T03:59:34;10.00;99.90
65770;DHT22;52512;47.650;8.578;2023-04-24T04:02:00;10.00;99.90
65770;DHT22;52512;47.650;8.578;2023-04-24T04:04:25;9.90;99.90
65770;DHT22;52512;47.650;8.578;2023-04-24T04:06:51;10.00;99.90
65770;DHT22;52512;47.650;8.578;2023-04-24T04:09:17;9.90;99.90
65770;DHT22;52512;47.650;8.578;2023-04-24T04:11:43;9.90;99.90
65770;DHT22;52512;47.650;8.578;2023-04-24T04:14:08;9.90;99.90
65770;DHT22;52512;47.650;8.578;2023-04-24T04:16:34;10.00;99.90
65770;DHT22;52512;47.650;8.578;2023-04-24T04:19:02;9.90;99.90
65770;DHT22;52512;47.650;8.578;2023-04-24T04:21:28;9.90;99.90
65770;DHT22;52512;47.650;8.578;2023-04-24T04:23:54;9.90;99.90
65770;DHT22;52512;47.650;8.578;2023-04-24T04:26:20;9.90;99.90
65770;DHT22;52512;47.650;8.578;2023-04-24T04:28:46;9.90;99.90
65770;DHT22;52512;47.650;8.578;2023-04-24T04:31:13;9.90;99.90
65770;DHT22;52512;47.650;8.578;2023-04-24T04:33:38;9.80;99.90
65770;DHT22;52512;47.650;8.578;2023-04-24T04:36:05;9.80;99.90
65770;DHT22;52512;47.650;8.578;2023-04-24T04:38:30;9.80;99.90
65770;DHT22;52512;47.650;8.578;2023-04-24T04:40:56;9.80;99.90
65770;DHT22;52512;47.650;8.578;2023-04-24T04:43:25;9.70;99.90
65770;DHT22;52512;47.650;8.578;2023-04-24T04:45:52;9.70;99.90
65770;DHT22;52512;47.650;8.578;2023-04-24T04:48:19;9.70;99.90
65770;DHT22;52512;47.650;8.578;2023-04-24T04:50:45;9.60;99.90
65770;DHT22;52512;47.650;8.578;2023-04-24T04:53:11;9.60;99.90
65770;DHT22;52512;47.650;8.578;2023-04-24T04:55:37;9.60;99.90
65770;DHT22;52512;47.650;8.578;2023-04-24T04:58:03;9.60;99.90
65770;DHT22;52512;47.650;8.578;2023-04-24T05:00:28;9.60;99.90
65770;DHT22;52512;47.650;8.578;2023-04-24T05:02:59;9.60;99.90
65770;DHT22;52512;47.650;8.578;2023-04-24T05:05:25;9.60;99.90
65770;DHT22;52512;47.650;8.578;2023-04-24T05:07:50;9.60;99.90
65770;DHT22;52512;47.650;8.578;2023-04-24T05:10:16;9.60;99.90
65770;DHT22;52512;47.650;8.578;2023-04-24T05:12:42;9.60;99.90
65770;DHT22;52512;47.650;8.578;2023-04-24T05:15:07;9.60;99.90
65770;DHT22;52512;47.650;8.578;2023-04-24T05:17:33;9.60;99.90
65770;DHT22;52512;47.650;8.578;2023-04-24T05:19:59;9.60;99.90
65770;DHT22;52512;47.650;8.578;2023-04-24T05:22:25;9.60;99.90
65770;DHT22;52512;47.650;8.578;2023-04-24T05:24:51;9.60;99.90
65770;DHT22;52512;47.650;8.578;2023-04-24T05:27:17;9.60;99.90
65770;DHT22;52512;47.650;8.578;2023-04-24T05:29:43;9.60;99.90
65770;DHT22;52512;47.650;8.578;2023-04-24T05:32:09;9.60;99.90
65770;DHT22;52512;47.650;8.578;2023-04-24T05:34:34;9.60;99.90
65770;DHT22;52512;47.650;8.578;2023-04-24T05:37:00;9.60;99.90
65770;DHT22;52512;47.650;8.578;2023-04-24T05:39:26;9.60;99.90
65770;DHT22;52512;47.650;8.578;2023-04-24T05:41:51;9.60;99.90
65770;DHT22;52512;47.650;8.578;2023-04-24T05:44:17;9.60;99.90
65770;DHT22;52512;47.650;8.578;2023-04-24T05:46:43;9.60;99.90
65770;DHT22;52512;47.650;8.578;2023-04-24T05:49:09;9.60;99.90
65770;DHT22;52512;47.650;8.578;2023-04-24T05:51:34;9.60;99.90
65770;DHT22;52512;47.650;8.578;2023-04-24T05:54:00;9.60;99.90
65770;DHT22;52512;47.650;8.578;2023-04-24T05:56:27;9.60;99.90
65770;DHT22;52512;47.650;8.578;2023-04-24T05:58:52;9.50;99.90
65770;DHT22;52512;47.650;8.578;2023-04-24T06:01:18;9.50;99.90
65770;DHT22;52512;47.650;8.578;2023-04-24T06:03:44;9.60;99.90
65770;DHT22;52512;47.650;8.578;2023-04-24T06:06:10;9.60;99.90
65770;DHT22;52512;47.650;8.578;2023-04-24T06:08:36;9.60;99.90
65770;DHT22;52512;47.650;8.578;2023-04-24T06:11:01;9.60;99.90
65770;DHT22;52512;47.650;8.578;2023-04-24T06:13:27;9.60;99.90
65770;DHT22;52512;47.650;8.578;2023-04-24T06:15:53;9.60;99.90
65770;DHT22;52512;47.650;8.578;2023-04-24T06:18:20;9.70;99.90
65770;DHT22;52512;47.650;8.578;2023-04-24T06:20:46;9.70;99.90
65770;DHT22;52512;47.650;8.578;2023-04-24T06:23:12;9.70;99.90
65770;DHT22;52512;47.650;8.578;2023-04-24T06:25:38;9.80;99.90
65770;DHT22;52512;47.650;8.578;2023-04-24T06:28:04;9.80;99.90
65770;DHT22;52512;47.650;8.578;2023-04-24T06:30:30;9.90;99.90
65770;DHT22;52512;47.650;8.578;2023-04-24T06:32:56;9.90;99.90
65770;DHT22;52512;47.650;8.578;2023-04-24T06:35:21;10.00;99.90
65770;DHT22;52512;47.650;8.578;2023-04-24T06:37:47;10.00;99.90
65770;DHT22;52512;47.650;8.578;2023-04-24T06:40:13;10.10;99.90
65770;DHT22;52512;47.650;8.578;2023-04-24T06:42:38;10.20;99.90
65770;DHT22;52512;47.650;8.578;2023-04-24T06:45:05;10.20;99.90
65770;DHT22;52512;47.650;8.578;2023-04-24T06:47:31;10.20;99.90
65770;DHT22;52512;47.650;8.578;2023-04-24T06:49:56;10.30;99.90
65770;DHT22;52512;47.650;8.578;2023-04-24T06:52:22;10.30;99.90
65770;DHT22;52512;47.650;8.578;2023-04-24T06:54:48;10.40;99.90
65770;DHT22;52512;47.650;8.578;2023-04-24T06:57:14;10.50;99.90
65770;DHT22;52512;47.650;8.578;2023-04-24T06:59:41;10.50;99.90
65770;DHT22;52512;47.650;8.578;2023-04-24T07:02:07;10.50;99.90
65770;DHT22;52512;47.650;8.578;2023-04-24T07:04:32;10.50;99.90
65770;DHT22;52512;47.650;8.578;2023-04-24T07:06:58;10.50;99.90
65770;DHT22;52512;47.650;8.578;2023-04-24T07:09:25;10.50;99.90
65770;DHT22;52512;47.650;8.578;2023-04-24T07:11:51;10.50;99.90
65770;DHT22;52512;47.650;8.578;2023-04-24T07:14:18;10.50;99.90
65770;DHT22;52512;47.650;8.578;2023-04-24T07:16:43;10.50;99.90
65770;DHT22;52512;47.650;8.578;2023-04-24T07:19:10;10.50;99.90
65770;DHT22;52512;47.650;8.578;2023-04-24T07:21:36;10.50;99.90
65770;DHT22;52512;47.650;8.578;2023-04-24T07:24:02;10.60;99.90
65770;DHT22;52512;47.650;8.578;2023-04-24T07:26:29;10.60;99.90
65770;DHT22;52512;47.650;8.578;2023-04-24T07:28:55;10.60;99.90
65770;DHT22;52512;47.650;8.578;2023-04-24T07:31:20;10.60;99.90
65770;DHT22;52512;47.650;8.578;2023-04-24T07:33:46;10.60;99.90
65770;DHT22;52512;47.650;8.578;2023-04-24T07:36:12;10.50;99.90
65770;DHT22;52512;47.650;8.578;2023-04-24T07:38:45;10.40;99.90
65770;DHT22;52512;47.650;8.578;2023-04-24T07:41:14;10.40;99.90
65770;DHT22;52512;47.650;8.578;2023-04-24T07:43:41;10.40;99.90
65770;DHT22;52512;47.650;8.578;2023-04-24T07:46:07;10.30;99.90
65770;DHT22;52512;47.650;8.578;2023-04-24T07:48:33;10.30;99.90
65770;DHT22;52512;47.650;8.578;2023-04-24T07:50:59;10.40;99.90
65770;DHT22;52512;47.650;8.578;2023-04-24T07:53:25;10.40;99.90
65770;DHT22;52512;47.650;8.578;2023-04-24T07:55:51;10.30;99.90
65770;DHT22;52512;47.650;8.578;2023-04-24T07:58:16;10.30;99.90
65770;DHT22;52512;47.650;8.578;2023-04-24T08:00:42;10.30;99.90
65770;DHT22;52512;47.650;8.578;2023-04-24T08:03:08;10.30;99.90
65770;DHT22;52512;47.650;8.578;2023-04-24T08:05:33;10.30;99.90
65770;DHT22;52512;47.650;8.578;2023-04-24T08:07:59;10.30;99.90
65770;DHT22;52512;47.650;8.578;2023-04-24T08:10:25;10.30;99.90
65770;DHT22;52512;47.650;8.578;2023-04-24T08:12:51;10.20;99.90
65770;DHT22;52512;47.650;8.578;2023-04-24T08:15:17;10.20;99.90
65770;DHT22;52512;47.650;8.578;2023-04-24T08:17:43;10.20;99.90
65770;DHT22;52512;47.650;8.578;2023-04-24T08:20:12;10.20;99.90
65770;DHT22;52512;47.650;8.578;2023-04-24T08:22:41;10.20;99.90
65770;DHT22;52512;47.650;8.578;2023-04-24T08:25:08;10.20;99.90
65770;DHT22;52512;47.650;8.578;2023-04-24T08:27:37;10.20;99.90
65770;DHT22;52512;47.650;8.578;2023-04-24T08:30:04;10.20;99.90
65770;DHT22;52512;47.650;8.578;2023-04-24T08:32:30;10.20;99.90
65770;DHT22;52512;47.650;8.578;2023-04-24T08:34:57;10.20;99.90
65770;DHT22;52512;47.650;8.578;2023-04-24T08:37:23;10.20;99.90
65770;DHT22;52512;47.650;8.578;2023-04-24T08:39:49;10.20;99.90
65770;DHT22;52512;47.650;8.578;2023-04-24T08:42:16;10.10;99.90
65770;DHT22;52512;47.650;8.578;2023-04-24T08:44:42;10.10;99.90
65770;DHT22;52512;47.650;8.578;2023-04-24T08:47:08;10.20;99.90
65770;DHT22;52512;47.650;8.578;2023-04-24T08:49:36;10.20;99.90
65770;DHT22;52512;47.650;8.578;2023-04-24T08:52:02;10.30;99.90
65770;DHT22;52512;47.650;8.578;2023-04-24T08:54:28;10.40;99.90
65770;DHT22;52512;47.650;8.578;2023-04-24T08:56:58;10.40;99.90
65770;DHT22;52512;47.650;8.578;2023-04-24T08:59:26;10.50;99.90
65770;DHT22;52512;47.650;8.578;2023-04-24T09:01:52;10.50;99.90
65770;DHT22;52512;47.650;8.578;2023-04-24T09:04:20;10.60;99.90
65770;DHT22;52512;47.650;8.578;2023-04-24T09:06:48;10.60;99.90
65770;DHT22;52512;47.650;8.578;2023-04-24T09:09:16;10.70;99.90
65770;DHT22;52512;47.650;8.578;2023-04-24T09:11:43;10.80;99.90
65770;DHT22;52512;47.650;8.578;2023-04-24T09:14:10;10.90;99.90
65770;DHT22;52512;47.650;8.578;2023-04-24T09:16:36;10.90;99.90
65770;DHT22;52512;47.650;8.578;2023-04-24T09:19:02;11.00;99.90
65770;DHT22;52512;47.650;8.578;2023-04-24T09:21:32;11.00;99.90
65770;DHT22;52512;47.650;8.578;2023-04-24T09:24:07;11.10;99.90
65770;DHT22;52512;47.650;8.578;2023-04-24T09:26:35;11.10;99.90
65770;DHT22;52512;47.650;8.578;2023-04-24T09:29:03;11.10;99.90
65770;DHT22;52512;47.650;8.578;2023-04-24T09:31:29;11.30;99.90
65770;DHT22;52512;47.650;8.578;2023-04-24T09:34:00;11.30;99.90
65770;DHT22;52512;47.650;8.578;2023-04-24T09:36:28;11.40;99.90
65770;DHT22;52512;47.650;8.578;2023-04-24T09:38:58;11.50;99.90
65770;DHT22;52512;47.650;8.578;2023-04-24T09:41:24;11.60;99.90
65770;DHT22;52512;47.650;8.578;2023-04-24T09:43:50;11.70;99.90
65770;DHT22;52512;47.650;8.578;2023-04-24T09:46:18;11.80;99.90
65770;DHT22;52512;47.650;8.578;2023-04-24T09:48:44;11.90;99.90
65770;DHT22;52512;47.650;8.578;2023-04-24T09:51:09;12.00;99.90
65770;DHT22;52512;47.650;8.578;2023-04-24T09:53:38;12.00;99.90
65770;DHT22;52512;47.650;8.578;2023-04-24T09:56:10;11.90;99.90
65770;DHT22;52512;47.650;8.578;2023-04-24T09:58:37;11.90;99.90
65770;DHT22;52512;47.650;8.578;2023-04-24T10:01:03;12.00;99.90
65770;DHT22;52512;47.650;8.578;2023-04-24T10:03:33;11.90;99.90
65770;DHT22;52512;47.650;8.578;2023-04-24T10:05:59;11.90;99.90
65770;DHT22;52512;47.650;8.578;2023-04-24T10:08:26;12.00;99.90
65770;DHT22;52512;47.650;8.578;2023-04-24T10:10:52;12.10;99.90
65770;DHT22;52512;47.650;8.578;2023-04-24T10:13:18;12.10;99.90
65770;DHT22;52512;47.650;8.578;2023-04-24T10:15:44;12.10;99.90
65770;DHT22;52512;47.650;8.578;2023-04-24T10:18:11;12.10;99.90
65770;DHT22;52512;47.650;8.578;2023-04-24T10:20:38;12.10;99.90
65770;DHT22;52512;47.650;8.578;2023-04-24T10:23:04;12.20;99.90
65770;DHT22;52512;47.650;8.578;2023-04-24T10:25:33;12.20;99.90
65770;DHT22;52512;47.650;8.578;2023-04-24T10:28:00;12.20;99.90
65770;DHT22;52512;47.650;8.578;2023-04-24T10:30:31;12.40;99.90
65770;DHT22;52512;47.650;8.578;2023-04-24T10:33:03;12.40;99.90
65770;DHT22;52512;47.650;8.578;2023-04-24T10:35:38;12.40;99.90
65770;DHT22;52512;47.650;8.578;2023-04-24T10:38:12;12.50;99.90
65770;DHT22;52512;47.650;8.578;2023-04-24T10:40:39;12.60;99.70
65770;DHT22;52512;47.650;8.578;2023-04-24T10:43:06;12.60;99.90
65770;DHT22;52512;47.650;8.578;2023-04-24T10:45:33;12.70;99.90
65770;DHT22;52512;47.650;8.578;2023-04-24T10:48:04;12.80;99.90
65770;DHT22;52512;47.650;8.578;2023-04-24T10:50:46;12.80;99.90
65770;DHT22;52512;47.650;8.578;2023-04-24T10:53:17;12.70;99.80
65770;DHT22;52512;47.650;8.578;2023-04-24T10:55:48;12.70;99.70
65770;DHT22;52512;47.650;8.578;2023-04-24T10:58:14;12.60;99.50
65770;DHT22;52512;47.650;8.578;2023-04-24T11:00:43;12.60;99.60
65770;DHT22;52512;47.650;8.578;2023-04-24T11:03:30;12.50;99.30
65770;DHT22;52512;47.650;8.578;2023-04-24T11:06:05;12.40;99.10
65770;DHT22;52512;47.650;8.578;2023-04-24T11:08:45;12.40;99.10
65770;DHT22;52512;47.650;8.578;2023-04-24T11:11:16;12.40;99.20
65770;DHT22;52512;47.650;8.578;2023-04-24T11:16:24;12.50;98.90
65770;DHT22;52512;47.650;8.578;2023-04-24T11:21:47;12.50;98.20
65770;DHT22;52512;47.650;8.578;2023-04-24T11:35:01;12.90;97.80
65770;DHT22;52512;47.650;8.578;2023-04-24T11:37:35;12.90;97.60
65770;DHT22;52512;47.650;8.578;2023-04-24T11:40:02;13.00;97.40
65770;DHT22;52512;47.650;8.578;2023-04-24T11:42:33;13.00;97.30
65770;DHT22;52512;47.650;8.578;2023-04-24T11:44:59;13.10;97.40
65770;DHT22;52512;47.650;8.578;2023-04-24T11:47:31;13.00;97.10
65770;DHT22;52512;47.650;8.578;2023-04-24T11:49:59;13.00;96.80
65770;DHT22;52512;47.650;8.578;2023-04-24T11:52:26;13.00;97.10
65770;DHT22;52512;47.650;8.578;2023-04-24T11:54:52;13.00;97.20
65770;DHT22;52512;47.650;8.578;2023-04-24T11:57:22;13.00;97.40
65770;DHT22;52512;47.650;8.578;2023-04-24T11:59:49;13.00;97.30
65770;DHT22;52512;47.650;8.578;2023-04-24T12:02:26;13.00;97.70
65770;DHT22;52512;47.650;8.578;2023-04-24T12:04:53;13.00;97.50
65770;DHT22;52512;47.650;8.578;2023-04-24T12:07:19;13.10;97.40
65770;DHT22;52512;47.650;8.578;2023-04-24T12:09:59;13.10;97.60
65770;DHT22;52512;47.650;8.578;2023-04-24T12:12:34;13.10;97.30
65770;DHT22;52512;47.650;8.578;2023-04-24T12:15:01;13.10;97.10
65770;DHT22;52512;47.650;8.578;2023-04-24T12:17:32;13.00;96.70
65770;DHT22;52512;47.650;8.578;2023-04-24T12:19:59;13.00;96.60
65770;DHT22;52512;47.650;8.578;2023-04-24T12:22:26;13.00;96.40
65770;DHT22;52512;47.650;8.578;2023-04-24T12:25:01;13.00;96.70
65770;DHT22;52512;47.650;8.578;2023-04-24T12:27:32;13.10;96.60
65770;DHT22;52512;47.650;8.578;2023-04-24T12:30:03;13.20;96.70
65770;DHT22;52512;47.650;8.578;2023-04-24T12:32:30;13.20;96.50
65770;DHT22;52512;47.650;8.578;2023-04-24T12:34:56;13.10;96.30
65770;DHT22;52512;47.650;8.578;2023-04-24T12:37:26;13.10;96.50
65770;DHT22;52512;47.650;8.578;2023-04-24T12:40:02;13.10;96.30
65770;DHT22;52512;47.650;8.578;2023-04-24T12:42:30;13.10;96.30
65770;DHT22;52512;47.650;8.578;2023-04-24T12:44:58;13.10;96.50
65770;DHT22;52512;47.650;8.578;2023-04-24T12:47:27;13.10;96.40
65770;DHT22;52512;47.650;8.578;2023-04-24T12:49:53;13.20;96.00
65770;DHT22;52512;47.650;8.578;2023-04-24T12:52:21;13.20;95.80
65770;DHT22;52512;47.650;8.578;2023-04-24T12:54:47;13.30;96.50
65770;DHT22;52512;47.650;8.578;2023-04-24T12:57:14;13.30;95.40
65770;DHT22;52512;47.650;8.578;2023-04-24T12:59:40;13.30;95.70
65770;DHT22;52512;47.650;8.578;2023-04-24T13:02:07;13.40;95.70
65770;DHT22;52512;47.650;8.578;2023-04-24T13:04:32;13.40;95.70
65770;DHT22;52512;47.650;8.578;2023-04-24T13:06:58;13.60;95.80
65770;DHT22;52512;47.650;8.578;2023-04-24T13:09:24;13.60;95.90
65770;DHT22;52512;47.650;8.578;2023-04-24T13:11:50;13.70;96.10
65770;DHT22;52512;47.650;8.578;2023-04-24T13:14:16;13.70;95.80
65770;DHT22;52512;47.650;8.578;2023-04-24T13:16:41;13.60;95.30
65770;DHT22;52512;47.650;8.578;2023-04-24T13:19:07;13.70;95.40
65770;DHT22;52512;47.650;8.578;2023-04-24T13:21:33;13.70;95.40
65770;DHT22;52512;47.650;8.578;2023-04-24T13:23:58;13.70;95.30
65770;DHT22;52512;47.650;8.578;2023-04-24T13:26:24;13.70;95.40
65770;DHT22;52512;47.650;8.578;2023-04-24T13:28:50;13.80;95.90
65770;DHT22;52512;47.650;8.578;2023-04-24T13:31:16;13.80;95.70
65770;DHT22;52512;47.650;8.578;2023-04-24T13:33:42;13.80;95.40
65770;DHT22;52512;47.650;8.578;2023-04-24T13:36:08;13.80;95.30
65770;DHT22;52512;47.650;8.578;2023-04-24T13:38:34;13.80;95.30
65770;DHT22;52512;47.650;8.578;2023-04-24T13:41:00;13.80;94.90
65770;DHT22;52512;47.650;8.578;2023-04-24T13:43:25;13.70;94.60
65770;DHT22;52512;47.650;8.578;2023-04-24T13:45:51;13.80;95.00
65770;DHT22;52512;47.650;8.578;2023-04-24T13:48:17;13.70;94.70
65770;DHT22;52512;47.650;8.578;2023-04-24T13:50:43;13.60;94.70
65770;DHT22;52512;47.650;8.578;2023-04-24T13:53:09;13.50;94.90
65770;DHT22;52512;47.650;8.578;2023-04-24T13:55:36;13.50;95.10
65770;DHT22;52512;47.650;8.578;2023-04-24T13:58:02;13.50;95.00
65770;DHT22;52512;47.650;8.578;2023-04-24T14:00:28;13.50;95.00
65770;DHT22;52512;47.650;8.578;2023-04-24T14:02:54;13.40;94.70
65770;DHT22;52512;47.650;8.578;2023-04-24T14:05:19;13.40;95.10
65770;DHT22;52512;47.650;8.578;2023-04-24T14:07:47;13.40;95.20
65770;DHT22;52512;47.650;8.578;2023-04-24T14:10:12;13.30;94.80
65770;DHT22;52512;47.650;8.578;2023-04-24T14:12:38;13.20;94.90
65770;DHT22;52512;47.650;8.578;2023-04-24T14:15:04;13.20;94.60
65770;DHT22;52512;47.650;8.578;2023-04-24T14:17:30;13.10;94.90
65770;DHT22;52512;47.650;8.578;2023-04-24T14:19:56;13.10;95.20
65770;DHT22;52512;47.650;8.578;2023-04-24T14:22:22;13.00;95.00
65770;DHT22;52512;47.650;8.578;2023-04-24T14:24:48;13.00;95.10
65770;DHT22;52512;47.650;8.578;2023-04-24T14:27:14;12.90;95.10
65770;DHT22;52512;47.650;8.578;2023-04-24T14:29:39;12.90;95.20
65770;DHT22;52512;47.650;8.578;2023-04-24T14:32:05;12.90;95.50
65770;DHT22;52512;47.650;8.578;2023-04-24T14:34:31;12.90;95.20
65770;DHT22;52512;47.650;8.578;2023-04-24T14:36:57;12.90;95.40
65770;DHT22;52512;47.650;8.578;2023-04-24T14:39:24;13.00;95.70
65770;DHT22;52512;47.650;8.578;2023-04-24T14:41:49;13.00;95.60
65770;DHT22;52512;47.650;8.578;2023-04-24T14:44:15;13.00;95.40
65770;DHT22;52512;47.650;8.578;2023-04-24T14:46:42;13.10;95.80
65770;DHT22;52512;47.650;8.578;2023-04-24T14:49:08;13.20;95.90
65770;DHT22;52512;47.650;8.578;2023-04-24T14:51:35;13.20;95.70
65770;DHT22;52512;47.650;8.578;2023-04-24T14:54:01;13.20;95.60
65770;DHT22;52512;47.650;8.578;2023-04-24T14:56:27;13.20;95.50
65770;DHT22;52512;47.650;8.578;2023-04-24T14:58:53;13.20;95.50
65770;DHT22;52512;47.650;8.578;2023-04-24T15:01:18;13.30;95.60
65770;DHT22;52512;47.650;8.578;2023-04-24T15:03:44;13.40;95.40
65770;DHT22;52512;47.650;8.578;2023-04-24T15:06:10;13.40;95.50
65770;DHT22;52512;47.650;8.578;2023-04-24T15:08:35;13.60;95.10
65770;DHT22;52512;47.650;8.578;2023-04-24T15:11:01;13.70;95.70
65770;DHT22;52512;47.650;8.578;2023-04-24T15:13:27;13.90;95.60
65770;DHT22;52512;47.650;8.578;2023-04-24T15:15:53;14.00;95.40
65770;DHT22;52512;47.650;8.578;2023-04-24T15:18:18;14.20;95.30
65770;DHT22;52512;47.650;8.578;2023-04-24T15:20:44;14.30;95.40
65770;DHT22;52512;47.650;8.578;2023-04-24T15:23:10;14.30;94.90
65770;DHT22;52512;47.650;8.578;2023-04-24T15:25:37;14.30;94.90
65770;DHT22;52512;47.650;8.578;2023-04-24T15:28:03;14.30;95.00
65770;DHT22;52512;47.650;8.578;2023-04-24T15:30:30;14.30;95.00
65770;DHT22;52512;47.650;8.578;2023-04-24T15:32:56;14.30;94.70
65770;DHT22;52512;47.650;8.578;2023-04-24T15:35:22;14.20;94.40
65770;DHT22;52512;47.650;8.578;2023-04-24T15:37:48;14.30;94.50
65770;DHT22;52512;47.650;8.578;2023-04-24T15:40:14;14.30;93.80
65770;DHT22;52512;47.650;8.578;2023-04-24T15:42:42;14.20;93.90
65770;DHT22;52512;47.650;8.578;2023-04-24T15:45:08;14.20;93.60